Schedule Details


Flight Number: CTN411
Departure: Frankfurt/main (EDDF) at 18:00
Arrival: Franjo Tudman (LDZA) at 19:25
Route: NOMBO UZ738 MUN UM867 VAROB DCT PIKIT DCT ARGOM

Weather Information
EDDF 290150Z 21010KT 9999 FEW012 SCT029 02/01 Q1003 NOSIG
LDZA 290130Z 01004KT 340V080 9999 -SHRA BKN009 FEW030TCU 02/01 Q1010 TEMPO -TSRA FEW040CB
Schedule Frequency

Route Map